Overview Statistics Trail Chart Weather Telemetry Raw packets
 

This is the latest recevied weather packets stored in our database for station/object G0TQM-11. If no packets are shown the sender has not sent any weather packets the latest 10 day(s).

<< 6 7 8 9 10 11 12 >>
Time Temp. Humidity Pressure Rain* Wind** Luminosity Snow
1788464516 20° C 63% 1008.7 hPa - - - -
1788463315 20° C 62% 1008.8 hPa - - - -
1788462115 20.56° C 61% 1008.3 hPa - - - -
1788460920 20.56° C 59% 1009.1 hPa - - - -
1788459715 21.11° C 58% 1009.2 hPa - - - -
1788458515 21.67° C 54% 1009.6 hPa - - - -
1788457315 22.22° C 53% 1009.3 hPa - - - -
1788456114 22.22° C 52% 1009.9 hPa - - - -
1788454940 22.78° C 51% 1009.9 hPa - - - -
1788453714 23.33° C 51% 1010 hPa - - - -
1788452514 23.89° C 47% 1010.3 hPa - - - -
1788451314 24.44° C 46% 1009.8 hPa - - - -
1788450114 23.33° C 47% 1010.9 hPa - - - -
1788448914 23.89° C 47% 1010.7 hPa - - - -
1788447713 26.11° C 43% 1010.7 hPa - - - -
1788446513 25.56° C 46% 1010.7 hPa - - - -
1788445313 24.44° C 46% 1010.8 hPa - - - -
1788444113 25° C 45% 1010.7 hPa - - - -
1788442913 25.56° C 44% 1010.6 hPa - - - -
1788441718 25.56° C 45% 1010.6 hPa - - - -
1788440517 25° C 47% 1010.6 hPa - - - -
1788439317 25.56° C 46% 1010.8 hPa - - - -
1788438117 24.44° C 47% 1011.1 hPa - - - -
1788436917 23.33° C 49% 1011.2 hPa - - - -
1788435717 23.89° C 48% 1011.3 hPa - - - -

* Rain since midnight (hover to see other rain measurements)
** Current wind speed in m/s (hover to see current wind gust speed)